createdAt,value
2023-12-12T00:01:58.426Z,65472.38
2023-12-12T00:07:04.940Z,65439.13
2023-12-12T00:12:09.771Z,65513.66
2023-12-12T00:17:14.405Z,65461.59
2023-12-12T00:22:20.614Z,65511.09
2023-12-12T00:27:25.565Z,65454.47
2023-12-12T00:32:30.771Z,65478.13
2023-12-12T00:37:37.101Z,65488.59
2023-12-12T00:42:41.983Z,65476.44
2023-12-12T00:47:47.456Z,65460.34
2023-12-12T00:52:55.993Z,65495.63
2023-12-12T00:58:00.833Z,65487.09
2023-12-12T01:03:06.277Z,65440.19
2023-12-12T01:08:15.920Z,65477.59
2023-12-12T01:13:21.806Z,65414.00
2023-12-12T01:18:28.169Z,65389.59
2023-12-12T01:36:20.366Z,65479.09
2023-12-12T01:41:27.761Z,65446.25
2023-12-12T01:46:35.885Z,65467.47
2023-12-12T01:51:41.925Z,65391.09
2023-12-12T01:56:58.913Z,65396.94
2023-12-12T03:16:11.946Z,65502.66
2023-12-12T03:22:01.859Z,65443.81
2023-12-12T03:27:34.979Z,65435.94
2023-12-12T03:32:48.683Z,65429.34
2023-12-12T03:37:55.619Z,65418.59
2023-12-12T03:43:06.234Z,65418.25
2023-12-12T03:49:20.382Z,65411.22
2023-12-12T03:54:52.631Z,65394.50
2023-12-12T04:13:05.743Z,65438.50
2023-12-12T04:18:14.798Z,65406.09
2023-12-12T04:23:26.344Z,65436.03
2023-12-12T04:28:56.652Z,65438.06
2023-12-12T04:34:53.362Z,65453.50
2023-12-12T04:40:14.684Z,65455.22
2023-12-12T04:45:27.678Z,65430.50
2023-12-12T04:50:39.281Z,65379.91
2023-12-12T04:56:08.676Z,65416.22
2023-12-12T05:01:39.381Z,65466.22
2023-12-12T05:14:13.633Z,65476.88
2023-12-12T05:19:29.882Z,65485.41
2023-12-12T05:24:39.095Z,65464.72
2023-12-12T05:37:21.897Z,65482.84
2023-12-12T05:42:32.292Z,65476.97
2023-12-12T05:47:59.817Z,65422.09
2023-12-12T05:59:00.218Z,65459.47
2023-12-12T06:04:33.311Z,65445.00
2023-12-12T06:46:17.863Z,65490.28
2023-12-12T06:51:39.682Z,65447.66
2023-12-12T06:56:50.967Z,65471.19
2023-12-12T07:02:50.099Z,65515.44
2023-12-12T07:08:43.727Z,65445.63
2023-12-12T07:14:08.823Z,65463.63
2023-12-12T07:19:18.162Z,65425.91
2023-12-12T08:58:48.830Z,65530.16
2023-12-12T09:11:21.997Z,65617.66
2023-12-12T09:29:17.072Z,65512.44
2023-12-12T09:34:32.313Z,65513.31
2023-12-12T09:39:55.905Z,65574.97
2023-12-12T09:45:29.831Z,65601.00
2023-12-12T09:50:39.437Z,65665.34
2023-12-12T10:20:02.959Z,65630.44
2023-12-12T10:25:13.378Z,65657.78
2023-12-12T10:30:20.594Z,65636.34
2023-12-12T10:35:33.062Z,65707.50
2023-12-12T10:40:42.952Z,65687.22
2023-12-12T10:45:50.773Z,65702.28
2023-12-12T10:51:07.330Z,65654.56
2023-12-12T10:56:16.800Z,65705.91
2023-12-12T11:01:25.924Z,65752.91
2023-12-12T11:06:36.531Z,65696.63
2023-12-12T11:11:46.793Z,65703.25
2023-12-12T11:17:04.388Z,65696.09
2023-12-12T11:22:42.090Z,65696.84
2023-12-12T11:27:52.119Z,65664.59
2023-12-12T11:33:02.748Z,65668.44
2023-12-12T11:38:30.003Z,65755.06
2023-12-12T11:43:40.729Z,65785.31
2023-12-12T11:48:49.445Z,65715.00
2023-12-12T11:54:00.077Z,65779.53
2023-12-12T11:59:11.767Z,65747.56
2023-12-12T12:04:18.600Z,65730.38
2023-12-12T12:09:27.238Z,65763.03
2023-12-12T12:14:35.117Z,65761.81
2023-12-12T12:19:45.027Z,65752.19
2023-12-12T12:24:54.431Z,65694.69
2023-12-12T12:30:05.730Z,65740.00
2023-12-12T12:35:15.336Z,65713.28
2023-12-12T12:40:42.773Z,65728.88
2023-12-12T12:45:58.237Z,65606.53
2023-12-12T12:51:18.397Z,65694.59
2023-12-12T12:56:30.392Z,65652.78
2023-12-12T13:01:42.538Z,65667.81
2023-12-12T13:06:55.378Z,65718.09
2023-12-12T13:12:04.886Z,65727.81
2023-12-12T13:17:12.689Z,65698.78
2023-12-12T13:22:20.682Z,65683.81
2023-12-12T13:27:32.348Z,65688.44
2023-12-12T13:32:45.907Z,65763.50
2023-12-12T13:37:56.307Z,65736.78
2023-12-12T13:43:08.395Z,65771.22
2023-12-12T13:48:20.191Z,65787.88
2023-12-12T13:53:42.023Z,65830.41
2023-12-12T13:59:08.014Z,65829.88
2023-12-12T14:04:47.358Z,65798.78
2023-12-12T14:10:06.108Z,65813.28
2023-12-12T14:16:07.731Z,65754.31
2023-12-12T14:21:18.803Z,65769.72
2023-12-12T14:32:44.677Z,65786.22
2023-12-12T14:38:18.525Z,65766.59
2023-12-12T14:50:59.794Z,65666.94
2023-12-12T14:56:12.866Z,65778.00
2023-12-12T15:01:33.005Z,65842.59
2023-12-12T15:06:45.411Z,65711.78
2023-12-12T15:12:17.062Z,65715.09
2023-12-12T15:17:48.944Z,65706.78
2023-12-12T15:23:06.776Z,65734.22
2023-12-12T15:28:47.749Z,65709.56
2023-12-12T15:41:53.835Z,65753.78
2023-12-12T15:48:14.072Z,65841.00
2023-12-12T16:00:15.739Z,65816.75
2023-12-12T16:05:25.683Z,65779.63
2023-12-12T16:32:35.338Z,65736.34
2023-12-12T16:38:10.851Z,65784.41
2023-12-12T16:44:06.880Z,65736.44
2023-12-12T16:49:52.738Z,65722.66
2023-12-12T16:55:00.297Z,65738.28
2023-12-12T17:00:17.354Z,65735.72
2023-12-12T17:05:27.424Z,65727.19
2023-12-12T17:10:33.206Z,65722.44
2023-12-12T17:16:15.700Z,65618.28
2023-12-12T17:48:52.079Z,65623.19
2023-12-12T17:54:00.757Z,65744.69
2023-12-12T17:59:09.334Z,65753.34
2023-12-12T18:04:18.703Z,65733.69
2023-12-12T18:15:47.399Z,65680.63
2023-12-12T18:21:14.920Z,65655.19
2023-12-12T18:26:30.367Z,65679.13
2023-12-12T18:31:59.369Z,65681.88
2023-12-12T18:37:08.897Z,65665.88
2023-12-12T18:42:25.503Z,65697.38
2023-12-12T18:48:02.384Z,65677.63
2023-12-12T18:53:11.489Z,65707.22
2023-12-12T18:58:28.532Z,65663.63
2023-12-12T19:03:34.921Z,65740.09
2023-12-12T19:14:51.561Z,65608.34
2023-12-12T19:20:09.636Z,65520.47
2023-12-12T19:25:15.115Z,65567.50
2023-12-12T19:30:25.329Z,65649.84
2023-12-12T19:35:49.418Z,65625.31
2023-12-12T19:47:18.474Z,65655.00
2023-12-12T19:52:25.868Z,65666.84
2023-12-12T19:57:36.947Z,65699.50
2023-12-12T20:02:47.169Z,65652.00
2023-12-12T20:07:52.864Z,65555.78
2023-12-12T20:13:01.468Z,65632.78
2023-12-12T20:24:39.552Z,65606.44
2023-12-12T20:29:58.581Z,65681.88
2023-12-12T20:35:07.042Z,65643.16
2023-12-12T20:40:16.774Z,65568.03
2023-12-12T20:45:24.296Z,65598.63
2023-12-12T20:50:31.387Z,65588.31
2023-12-12T20:55:43.425Z,65684.75
2023-12-12T21:01:36.086Z,65749.69
2023-12-12T21:06:46.893Z,65629.81
2023-12-12T21:12:32.183Z,65641.88
2023-12-12T21:17:42.447Z,65679.13
2023-12-12T21:22:52.421Z,65623.50
2023-12-12T21:28:08.712Z,65645.50
2023-12-12T21:33:25.252Z,65632.06
2023-12-12T21:38:46.312Z,65713.19
2023-12-12T21:44:52.180Z,65725.47
2023-12-12T22:02:05.033Z,65702.91
2023-12-12T22:08:14.613Z,65651.88
2023-12-12T22:13:29.233Z,65639.72
2023-12-12T22:25:41.797Z,65665.25
2023-12-12T22:30:57.916Z,65590.63
2023-12-12T22:42:40.130Z,65716.91
2023-12-12T22:54:08.057Z,65604.41
2023-12-12T22:59:42.595Z,65543.59
2023-12-12T23:05:48.827Z,65541.47
2023-12-12T23:11:31.932Z,65505.31
2023-12-12T23:17:05.012Z,65506.72
2023-12-12T23:22:22.420Z,65564.41
2023-12-12T23:27:34.091Z,65523.66
2023-12-12T23:33:00.082Z,65630.53
2023-12-12T23:38:07.675Z,65584.75
2023-12-12T23:43:16.188Z,65593.22
2023-12-12T23:48:29.922Z,65604.50
2023-12-12T23:53:38.724Z,65603.78
2023-12-12T23:58:47.954Z,65598.53
